createdAt,value
2018-08-22T00:01:33.613Z,6.40
2018-08-22T00:04:02.256Z,6.90
2018-08-22T00:06:30.928Z,6.50
2018-08-22T00:08:59.629Z,6.07
2018-08-22T00:11:28.291Z,6.73
2018-08-22T00:13:56.968Z,8.53
2018-08-22T00:16:25.679Z,6.63
2018-08-22T00:18:54.370Z,6.80
2018-08-22T00:21:23.952Z,6.83
2018-08-22T00:23:52.601Z,6.63
2018-08-22T00:26:21.270Z,6.67
2018-08-22T00:28:49.932Z,7.40
2018-08-22T00:31:18.585Z,7.30
2018-08-22T00:33:47.230Z,7.33
2018-08-22T00:36:15.915Z,7.10
2018-08-22T00:38:44.568Z,7.60
2018-08-22T00:41:13.265Z,7.77
2018-08-22T00:43:41.925Z,7.33
2018-08-22T00:46:10.572Z,6.53
2018-08-22T00:48:39.196Z,7.20
2018-08-22T00:51:07.859Z,7.37
2018-08-22T00:53:36.495Z,9.17
2018-08-22T00:56:05.224Z,8.67
2018-08-22T00:58:33.908Z,7.33
2018-08-22T01:01:02.569Z,7.57
2018-08-22T01:03:31.209Z,6.67
2018-08-22T01:05:59.855Z,7.50
2018-08-22T01:08:28.508Z,7.87
2018-08-22T01:10:57.188Z,7.57
2018-08-22T01:13:25.867Z,8.27
2018-08-22T01:15:54.583Z,9.93
2018-08-22T01:18:23.251Z,8.33
2018-08-22T01:20:51.904Z,7.70
2018-08-22T01:23:20.529Z,7.97
2018-08-22T01:25:49.176Z,7.73
2018-08-22T01:28:17.812Z,7.17
2018-08-22T01:30:46.468Z,7.87
2018-08-22T01:33:15.171Z,7.57
2018-08-22T01:35:43.847Z,8.23
2018-08-22T01:38:12.486Z,8.93
2018-08-22T01:40:41.170Z,8.40
2018-08-22T01:43:09.812Z,8.37
2018-08-22T01:45:38.428Z,9.23
2018-08-22T01:48:07.104Z,8.13
2018-08-22T01:50:35.743Z,8.33
2018-08-22T01:53:04.440Z,7.43
2018-08-22T01:55:33.100Z,8.30
2018-08-22T01:58:01.752Z,8.67
2018-08-22T02:00:30.396Z,8.40
2018-08-22T02:02:59.034Z,8.87
2018-08-22T02:05:27.684Z,8.33
2018-08-22T02:07:56.320Z,8.50
2018-08-22T02:10:24.951Z,8.67
2018-08-22T02:12:53.615Z,8.23
2018-08-22T02:15:22.284Z,8.80
2018-08-22T02:17:50.919Z,9.47
2018-08-22T02:20:19.543Z,8.67
2018-08-22T02:22:48.155Z,9.63
2018-08-22T02:25:16.790Z,8.80
2018-08-22T02:27:45.440Z,8.90
2018-08-22T02:30:14.075Z,9.17
2018-08-22T02:32:42.704Z,9.07
2018-08-22T02:35:11.352Z,8.70
2018-08-22T02:37:39.971Z,9.43
2018-08-22T02:40:08.617Z,9.57
2018-08-22T02:42:37.252Z,9.93
2018-08-22T02:45:05.951Z,9.10
2018-08-22T02:47:34.581Z,8.77
2018-08-22T02:50:03.302Z,10.40
2018-08-22T02:52:31.947Z,10.00
2018-08-22T02:55:00.843Z,9.17
2018-08-22T02:57:29.550Z,8.63
2018-08-22T02:59:58.244Z,9.53
2018-08-22T03:02:26.876Z,9.17
2018-08-22T03:04:55.559Z,8.87
2018-08-22T03:07:24.252Z,9.30
2018-08-22T03:09:52.900Z,9.60
2018-08-22T03:12:21.572Z,9.20
2018-08-22T03:14:50.227Z,9.33
2018-08-22T03:17:18.899Z,10.37
2018-08-22T03:19:47.508Z,9.63
2018-08-22T03:22:16.301Z,9.77
2018-08-22T03:24:44.924Z,9.73
2018-08-22T03:27:13.565Z,9.63
2018-08-22T03:29:42.205Z,9.20
2018-08-22T03:32:10.902Z,9.47
2018-08-22T03:34:39.532Z,9.43
2018-08-22T03:37:08.156Z,9.17
2018-08-22T03:39:36.840Z,10.50
2018-08-22T03:42:05.517Z,9.73
2018-08-22T03:44:34.174Z,10.37
2018-08-22T03:47:02.872Z,9.37
2018-08-22T03:49:31.487Z,9.43
2018-08-22T03:52:00.160Z,9.67
2018-08-22T03:54:28.840Z,10.20
2018-08-22T03:56:57.488Z,9.27
2018-08-22T03:59:26.124Z,10.93
2018-08-22T04:01:54.759Z,10.27
2018-08-22T04:04:23.402Z,10.17
2018-08-22T04:06:52.078Z,9.57
2018-08-22T04:09:20.828Z,10.00
2018-08-22T04:11:49.452Z,9.57
2018-08-22T04:14:18.130Z,9.60
2018-08-22T04:16:46.764Z,9.93
2018-08-22T04:19:15.451Z,9.80
2018-08-22T04:21:44.103Z,10.30
2018-08-22T04:24:12.732Z,9.73
2018-08-22T04:26:41.365Z,10.27
2018-08-22T04:29:10.015Z,10.37
2018-08-22T04:31:38.656Z,10.60
2018-08-22T04:34:07.320Z,10.63
2018-08-22T04:36:35.965Z,11.17
2018-08-22T04:39:06.148Z,11.00
2018-08-22T04:41:34.787Z,10.93
2018-08-22T04:44:03.438Z,10.67
2018-08-22T04:46:32.582Z,10.73
2018-08-22T04:49:01.284Z,10.40
2018-08-22T04:51:29.943Z,10.13
2018-08-22T04:53:58.589Z,10.33
2018-08-22T04:56:27.256Z,10.57
2018-08-22T04:58:55.908Z,10.83
2018-08-22T05:01:24.499Z,11.40
2018-08-22T05:03:53.139Z,11.03
2018-08-22T05:06:21.865Z,11.43
2018-08-22T05:08:50.515Z,11.03
2018-08-22T05:11:19.223Z,10.97
2018-08-22T05:13:48.130Z,11.40
2018-08-22T05:16:16.756Z,11.37
2018-08-22T05:18:45.441Z,10.90
2018-08-22T05:21:14.069Z,10.67
2018-08-22T05:23:42.692Z,12.10
2018-08-22T05:26:11.665Z,10.43
2018-08-22T05:28:40.337Z,10.70
2018-08-22T05:31:08.984Z,11.07
2018-08-22T05:33:37.595Z,10.60
2018-08-22T05:36:06.040Z,13.90
2018-08-22T05:38:34.655Z,11.37
2018-08-22T05:41:03.271Z,11.10
2018-08-22T05:43:31.958Z,10.80
2018-08-22T05:46:00.605Z,11.53
2018-08-22T05:48:29.271Z,10.83
2018-08-22T05:50:57.913Z,10.30
2018-08-22T05:53:26.609Z,11.67
2018-08-22T05:55:55.598Z,10.40
2018-08-22T05:58:24.902Z,11.10
2018-08-22T06:00:53.607Z,11.47
2018-08-22T06:03:22.471Z,10.60
2018-08-22T06:05:51.262Z,9.67
2018-08-22T06:08:19.971Z,10.93
2018-08-22T06:10:48.572Z,10.43
2018-08-22T06:13:17.160Z,10.33
2018-08-22T06:15:46.378Z,10.00
2018-08-22T06:18:14.972Z,10.23
2018-08-22T06:20:43.549Z,9.87
2018-08-22T06:23:12.128Z,11.63
2018-08-22T06:25:41.111Z,9.67
2018-08-22T06:28:10.144Z,10.23
2018-08-22T06:30:39.132Z,9.80
2018-08-22T06:33:08.195Z,10.40
2018-08-22T06:35:37.099Z,10.43
2018-08-22T06:38:06.132Z,9.43
2018-08-22T06:40:35.047Z,9.63
2018-08-22T06:43:04.044Z,9.20
2018-08-22T06:45:32.627Z,8.53
2018-08-22T06:48:01.211Z,9.83
2018-08-22T06:50:29.801Z,10.27
2018-08-22T06:52:58.505Z,9.80
2018-08-22T06:58:29.535Z,8.50
2018-08-22T07:01:19.261Z,9.13
2018-08-22T07:03:48.023Z,8.77
2018-08-22T07:06:25.886Z,8.53
2018-08-22T07:09:06.816Z,8.93
2018-08-22T07:11:37.105Z,8.60
2018-08-22T07:14:07.155Z,9.53
2018-08-22T07:16:40.956Z,8.57
2018-08-22T07:19:10.890Z,8.47
2018-08-22T07:21:39.660Z,8.20
2018-08-22T07:24:11.729Z,7.84
2018-08-22T07:29:53.812Z,7.90
2018-08-22T07:32:24.111Z,7.87
2018-08-22T07:34:55.692Z,7.47
2018-08-22T07:37:28.596Z,9.23
2018-08-22T07:39:57.514Z,7.28
2018-08-22T07:42:31.521Z,8.63
2018-08-22T07:45:01.239Z,7.72
2018-08-22T07:47:29.881Z,7.85
2018-08-22T07:49:58.529Z,7.83
2018-08-22T07:52:27.164Z,8.90
2018-08-22T07:54:55.803Z,8.87
2018-08-22T07:57:24.440Z,6.97
2018-08-22T07:59:53.767Z,7.28
2018-08-22T08:02:22.437Z,8.13
2018-08-22T08:04:51.141Z,7.80
2018-08-22T08:07:19.772Z,7.73
2018-08-22T08:09:48.447Z,8.57
2018-08-22T08:12:18.725Z,8.93
2018-08-22T08:14:51.870Z,7.77
2018-08-22T08:17:20.556Z,7.10
2018-08-22T08:19:49.212Z,7.37
2018-08-22T08:22:17.977Z,7.97
2018-08-22T08:24:46.629Z,7.37
2018-08-22T08:27:15.313Z,7.80
2018-08-22T08:29:43.953Z,8.20
2018-08-22T08:32:12.597Z,8.13
2018-08-22T08:34:41.228Z,7.50
2018-08-22T08:37:09.918Z,8.07
2018-08-22T08:39:38.604Z,7.33
2018-08-22T08:42:07.266Z,8.93
2018-08-22T08:44:35.955Z,7.40
2018-08-22T08:47:04.592Z,7.33
2018-08-22T08:49:33.282Z,6.87
2018-08-22T08:52:02.660Z,7.50
2018-08-22T08:54:31.347Z,7.60
2018-08-22T08:57:00.022Z,8.27
2018-08-22T08:59:28.681Z,7.17
2018-08-22T09:01:57.370Z,7.83
2018-08-22T09:04:26.041Z,7.17
2018-08-22T09:06:54.812Z,8.00
2018-08-22T09:09:23.456Z,11.03
2018-08-22T09:11:59.675Z,7.57
2018-08-22T09:14:29.011Z,7.63
2018-08-22T09:16:58.582Z,7.43
2018-08-22T09:19:27.533Z,7.10
2018-08-22T09:21:56.241Z,7.28
2018-08-22T09:24:24.911Z,7.97
2018-08-22T09:26:53.617Z,8.13
2018-08-22T09:29:22.284Z,8.53
2018-08-22T09:31:50.982Z,11.08
2018-08-22T09:34:22.373Z,7.50
2018-08-22T09:36:55.256Z,8.20
2018-08-22T09:39:29.777Z,7.78
2018-08-22T09:42:03.997Z,8.85
2018-08-22T09:44:37.995Z,7.75
2018-08-22T09:47:14.599Z,8.13
2018-08-22T09:52:29.219Z,7.83
2018-08-22T09:55:11.121Z,8.55
2018-08-22T09:57:40.968Z,8.98
2018-08-22T10:00:19.920Z,8.43
2018-08-22T10:02:53.020Z,8.03
2018-08-22T10:05:27.044Z,7.70
2018-08-22T10:07:57.974Z,8.33
2018-08-22T10:10:32.997Z,7.90
2018-08-22T10:13:04.012Z,7.72
2018-08-22T10:15:36.652Z,7.65
2018-08-22T10:18:07.150Z,8.30
2018-08-22T10:20:49.460Z,8.75
2018-08-22T10:23:20.239Z,8.03
2018-08-22T10:26:00.845Z,8.98
2018-08-22T10:28:46.277Z,9.55
2018-08-22T10:31:25.005Z,9.43
2018-08-22T10:34:02.935Z,8.53
2018-08-22T10:36:35.611Z,8.03
2018-08-22T10:41:42.696Z,8.13
2018-08-22T10:44:23.842Z,8.63
2018-08-22T10:47:02.504Z,7.60
2018-08-22T10:49:33.329Z,7.92
2018-08-22T10:52:08.224Z,8.08
2018-08-22T10:54:42.869Z,7.75
2018-08-22T10:57:26.926Z,7.97
2018-08-22T10:59:59.367Z,7.72
2018-08-22T11:02:33.344Z,7.50
2018-08-22T11:05:05.001Z,8.05
2018-08-22T11:07:36.120Z,8.10
2018-08-22T11:10:14.383Z,7.95
2018-08-22T11:13:01.989Z,7.97
2018-08-22T11:15:33.604Z,9.00
2018-08-22T11:18:08.110Z,8.80
2018-08-22T11:20:51.715Z,8.50
2018-08-22T11:23:33.853Z,8.10
2018-08-22T11:26:15.096Z,7.87
2018-08-22T11:29:01.457Z,11.10
2018-08-22T11:31:42.925Z,8.60
2018-08-22T11:34:24.604Z,8.13
2018-08-22T11:37:11.556Z,7.95
2018-08-22T11:39:45.349Z,10.30
2018-08-22T11:42:18.300Z,9.38
2018-08-22T11:44:50.619Z,8.43
2018-08-22T11:47:23.162Z,8.30
2018-08-22T11:50:06.824Z,8.75
2018-08-22T11:52:44.475Z,7.97
2018-08-22T11:55:29.944Z,7.87
2018-08-22T11:58:05.318Z,8.40
2018-08-22T12:00:39.968Z,8.33
2018-08-22T12:03:16.940Z,7.35
2018-08-22T12:05:50.663Z,8.08
2018-08-22T12:08:21.421Z,8.73
2018-08-22T12:10:56.410Z,7.60
2018-08-22T12:13:42.590Z,7.72
2018-08-22T12:16:14.093Z,8.40
2018-08-22T12:18:49.800Z,7.22
2018-08-22T12:21:29.043Z,7.75
2018-08-22T12:24:08.227Z,8.33
2018-08-22T12:26:57.153Z,9.03
2018-08-22T12:29:32.313Z,7.80
2018-08-22T12:32:10.424Z,7.97
2018-08-22T12:34:45.394Z,8.35
2018-08-22T12:37:22.802Z,9.98
2018-08-22T12:39:55.740Z,8.50
2018-08-22T12:42:39.191Z,7.87
2018-08-22T12:45:13.981Z,8.78
2018-08-22T12:47:47.198Z,8.98
2018-08-22T12:50:20.630Z,9.48
2018-08-22T12:52:59.624Z,9.75
2018-08-22T12:55:34.359Z,8.43
2018-08-22T12:58:10.620Z,8.05
2018-08-22T13:00:45.471Z,8.03
2018-08-22T13:03:16.003Z,7.70
2018-08-22T13:05:50.801Z,7.42
2018-08-22T13:08:21.757Z,8.38
2018-08-22T13:10:51.177Z,8.45
2018-08-22T13:13:25.605Z,8.80
2018-08-22T13:15:59.568Z,8.18
2018-08-22T13:18:31.014Z,9.03
2018-08-22T13:21:03.033Z,8.65
2018-08-22T13:23:34.631Z,9.58
2018-08-22T13:28:56.367Z,9.33
2018-08-22T13:31:31.409Z,8.85
2018-08-22T13:34:10.759Z,9.58
2018-08-22T13:36:43.162Z,9.00
2018-08-22T13:39:25.229Z,12.47
2018-08-22T13:45:00.435Z,8.53
2018-08-22T13:47:34.472Z,7.20
2018-08-22T13:50:07.068Z,7.62
2018-08-22T13:52:43.548Z,8.20
2018-08-22T13:55:15.639Z,7.97
2018-08-22T13:57:49.447Z,7.83
2018-08-22T14:00:29.645Z,7.67
2018-08-22T14:03:01.950Z,8.13
2018-08-22T14:08:16.929Z,10.20
2018-08-22T14:10:50.652Z,9.10
2018-08-22T14:13:28.490Z,9.43
2018-08-22T14:16:00.826Z,13.53
2018-08-22T14:18:39.957Z,9.98
2018-08-22T14:21:20.801Z,11.30
2018-08-22T14:24:18.778Z,10.10
2018-08-22T14:26:57.194Z,8.63
2018-08-22T14:29:34.234Z,8.50
2018-08-22T14:32:13.488Z,7.47
2018-08-22T14:37:44.765Z,5.27
2018-08-22T14:40:21.932Z,3.70
2018-08-22T14:43:03.637Z,3.97
2018-08-22T14:45:40.371Z,4.33
2018-08-22T14:48:19.760Z,3.93
2018-08-22T14:51:04.514Z,4.27
2018-08-22T14:53:37.871Z,3.77
2018-08-22T14:56:16.715Z,4.60
2018-08-22T14:58:53.980Z,4.20
2018-08-22T15:01:42.204Z,4.60
2018-08-22T15:04:22.145Z,4.73
2018-08-22T15:06:55.680Z,3.40
2018-08-22T15:09:27.575Z,3.50
2018-08-22T15:12:05.724Z,3.50
2018-08-22T15:14:38.109Z,5.33
2018-08-22T15:17:16.872Z,3.40
2018-08-22T15:19:57.743Z,4.33
2018-08-22T15:22:35.365Z,4.07
2018-08-22T15:25:20.180Z,3.17
2018-08-22T15:27:56.061Z,3.37
2018-08-22T15:30:39.403Z,3.03
2018-08-22T15:33:25.468Z,5.80
2018-08-22T15:36:07.412Z,10.97
2018-08-22T15:38:44.328Z,5.53
2018-08-22T15:41:17.757Z,6.23
2018-08-22T15:43:50.288Z,6.77
2018-08-22T15:46:29.460Z,9.70
2018-08-22T15:49:10.621Z,8.60
2018-08-22T15:51:44.786Z,7.93
2018-08-22T15:54:18.976Z,7.83
2018-08-22T15:56:52.668Z,9.10
2018-08-22T15:59:29.269Z,8.93
2018-08-22T16:02:02.359Z,9.70
2018-08-22T16:04:49.757Z,10.00
2018-08-22T16:07:30.048Z,9.33
2018-08-22T16:10:26.878Z,9.37
2018-08-22T16:13:01.990Z,8.33
2018-08-22T16:15:39.893Z,9.10
2018-08-22T16:18:26.111Z,9.43
2018-08-22T16:21:17.727Z,10.53
2018-08-22T16:26:42.970Z,10.40
2018-08-22T16:29:25.373Z,10.50
2018-08-22T16:32:03.741Z,9.90
2018-08-22T16:34:42.863Z,11.37
2018-08-22T16:37:59.887Z,10.60
2018-08-22T16:40:39.411Z,10.60
2018-08-22T16:43:13.800Z,11.47
2018-08-22T16:45:52.144Z,11.10
2018-08-22T16:48:23.583Z,11.07
2018-08-22T16:51:02.013Z,10.97
2018-08-22T16:53:36.016Z,11.57
2018-08-22T16:56:11.985Z,10.40
2018-08-22T16:58:44.089Z,10.27
2018-08-22T17:01:23.309Z,10.20
2018-08-22T17:03:59.406Z,10.30
2018-08-22T17:06:39.488Z,10.27
2018-08-22T17:09:21.519Z,9.53
2018-08-22T17:11:59.056Z,9.60
2018-08-22T17:17:17.317Z,9.77
2018-08-22T17:19:51.336Z,9.77
2018-08-22T17:22:25.025Z,8.87
2018-08-22T17:25:03.717Z,8.57
2018-08-22T17:27:38.710Z,8.07
2018-08-22T17:30:16.933Z,8.60
2018-08-22T17:32:52.705Z,8.10
2018-08-22T17:35:36.520Z,8.77
2018-08-22T17:38:22.276Z,8.50
2018-08-22T17:40:56.808Z,8.20
2018-08-22T17:43:32.972Z,8.53
2018-08-22T17:46:16.674Z,9.20
2018-08-22T17:49:06.142Z,8.60
2018-08-22T17:51:44.605Z,10.03
2018-08-22T17:54:13.204Z,9.00
2018-08-22T17:56:41.800Z,8.07
2018-08-22T17:59:10.439Z,9.33
2018-08-22T18:01:39.037Z,9.00
2018-08-22T18:04:07.651Z,9.50
2018-08-22T18:06:36.256Z,9.67
2018-08-22T18:09:05.812Z,10.77
2018-08-22T18:11:34.425Z,10.00
2018-08-22T18:14:03.081Z,9.53
2018-08-22T18:16:31.734Z,9.33
2018-08-22T18:19:00.341Z,9.57
2018-08-22T18:21:33.380Z,9.83
2018-08-22T18:24:02.539Z,8.73
2018-08-22T18:26:31.187Z,9.07
2018-08-22T18:28:59.792Z,8.50
2018-08-22T18:31:28.393Z,10.13
2018-08-22T18:33:59.103Z,10.03
2018-08-22T18:36:31.710Z,9.90
2018-08-22T18:39:04.912Z,9.60
2018-08-22T18:41:33.512Z,9.87
2018-08-22T18:44:02.412Z,9.80
2018-08-22T18:46:31.043Z,9.40
2018-08-22T18:49:00.735Z,9.00
2018-08-22T18:51:29.364Z,8.67
2018-08-22T18:53:58.948Z,9.10
2018-08-22T18:56:28.346Z,9.07
2018-08-22T18:58:56.971Z,9.83
2018-08-22T19:01:26.015Z,8.63
2018-08-22T19:03:56.339Z,9.23
2018-08-22T19:06:25.005Z,9.67
2018-08-22T19:08:53.608Z,9.03
2018-08-22T19:11:22.285Z,9.93
2018-08-22T19:13:50.883Z,9.40
2018-08-22T19:16:19.751Z,10.03
2018-08-22T19:18:48.358Z,9.43
2018-08-22T19:21:16.940Z,9.50
2018-08-22T19:23:50.035Z,10.07
2018-08-22T19:26:18.748Z,10.33
2018-08-22T19:28:55.800Z,8.60
2018-08-22T19:31:24.431Z,9.13
2018-08-22T19:33:54.172Z,10.17
2018-08-22T19:36:22.915Z,9.20
2018-08-22T19:38:51.674Z,9.17
2018-08-22T19:41:24.064Z,9.17
2018-08-22T19:43:52.936Z,9.47
2018-08-22T19:46:22.096Z,10.00
2018-08-22T19:48:51.533Z,9.00
2018-08-22T19:51:20.640Z,9.90
2018-08-22T19:53:57.343Z,12.30
2018-08-22T19:56:26.634Z,9.47
2018-08-22T19:58:55.229Z,9.87
2018-08-22T20:01:23.843Z,9.73
2018-08-22T20:03:53.971Z,9.63
2018-08-22T20:06:23.115Z,10.23
2018-08-22T20:08:53.563Z,9.80
2018-08-22T20:11:22.288Z,10.20
2018-08-22T20:13:56.144Z,10.30
2018-08-22T20:16:24.828Z,10.50
2018-08-22T20:18:55.528Z,10.30
2018-08-22T20:21:34.905Z,10.37
2018-08-22T20:24:05.186Z,10.87
2018-08-22T20:26:34.056Z,10.50
2018-08-22T20:29:03.605Z,10.13
2018-08-22T20:31:32.938Z,11.20
2018-08-22T20:34:10.404Z,10.93
2018-08-22T20:36:39.098Z,9.90
2018-08-22T20:39:10.050Z,10.63
2018-08-22T20:41:40.090Z,10.07
2018-08-22T20:44:11.272Z,10.80
2018-08-22T20:46:41.652Z,10.60
2018-08-22T20:49:10.342Z,10.37
2018-08-22T20:51:38.935Z,10.20
2018-08-22T20:54:12.720Z,10.40
2018-08-22T20:56:47.472Z,10.50
2018-08-22T20:59:17.448Z,10.13
2018-08-22T21:01:48.816Z,10.67
2018-08-22T21:04:17.420Z,10.43
2018-08-22T21:06:46.113Z,10.20
2018-08-22T21:09:14.707Z,9.03
2018-08-22T21:11:43.856Z,9.67
2018-08-22T21:14:13.208Z,10.47
2018-08-22T21:16:41.836Z,10.30
2018-08-22T21:19:10.452Z,10.80
2018-08-22T21:21:39.079Z,11.03
2018-08-22T21:24:07.703Z,9.70
2018-08-22T21:26:41.049Z,10.03
2018-08-22T21:29:09.978Z,10.43
2018-08-22T21:31:38.601Z,10.47
2018-08-22T21:34:13.562Z,10.23
2018-08-22T21:36:44.724Z,9.83
2018-08-22T21:39:18.817Z,10.87
2018-08-22T21:41:47.886Z,10.00
2018-08-22T21:44:19.224Z,10.50
2018-08-22T21:46:58.559Z,10.30
2018-08-22T21:49:29.762Z,10.13
2018-08-22T21:52:02.324Z,10.47
2018-08-22T21:54:31.559Z,9.73
2018-08-22T21:57:00.318Z,10.07
2018-08-22T21:59:29.504Z,10.10
2018-08-22T22:02:03.673Z,10.03
2018-08-22T22:04:36.156Z,9.73
2018-08-22T22:07:06.672Z,10.50
2018-08-22T22:09:36.684Z,9.20
2018-08-22T22:12:11.359Z,9.63
2018-08-22T22:14:45.260Z,9.80
2018-08-22T22:17:13.939Z,9.70
2018-08-22T22:19:42.601Z,9.73
2018-08-22T22:22:11.231Z,10.37
2018-08-22T22:24:50.431Z,10.13
2018-08-22T22:27:19.097Z,11.17
2018-08-22T22:29:47.693Z,9.83
2018-08-22T22:32:16.334Z,9.87
2018-08-22T22:34:44.964Z,9.97
2018-08-22T22:37:13.559Z,10.30
2018-08-22T22:39:43.612Z,9.67
2018-08-22T22:42:21.554Z,10.43
2018-08-22T22:44:52.268Z,9.73
2018-08-22T22:47:26.392Z,9.83
2018-08-22T22:49:55.547Z,9.67
2018-08-22T22:52:31.505Z,10.13
2018-08-22T22:55:01.512Z,10.03
2018-08-22T22:57:32.273Z,9.50
2018-08-22T23:00:01.776Z,10.17
2018-08-22T23:02:30.943Z,10.57
2018-08-22T23:05:00.271Z,11.77
2018-08-22T23:07:35.419Z,11.00
2018-08-22T23:10:05.410Z,9.90
2018-08-22T23:12:48.365Z,9.97
2018-08-22T23:15:20.149Z,10.23
2018-08-22T23:17:49.846Z,10.77
2018-08-22T23:20:30.380Z,11.10
2018-08-22T23:22:59.337Z,10.43
2018-08-22T23:25:28.464Z,9.73
2018-08-22T23:27:57.217Z,10.70
2018-08-22T23:30:32.195Z,10.53
2018-08-22T23:33:00.879Z,10.93
2018-08-22T23:35:30.960Z,10.33
2018-08-22T23:38:01.612Z,9.83
2018-08-22T23:40:33.243Z,10.13
2018-08-22T23:43:02.135Z,9.87
2018-08-22T23:45:35.903Z,9.87
2018-08-22T23:48:05.540Z,10.67
2018-08-22T23:50:56.832Z,10.73
2018-08-22T23:53:47.393Z,9.93
2018-08-22T23:56:32.876Z,10.30
2018-08-22T23:59:27.539Z,10.43
